Wetterdaten: April 2008
Datum Temp Feuchte Luftdruck Regen Wind Richtung Sonnenschein UV Solar Windben
01.04.2008 7,5 C 72 % 1018,0 hPa 3,2 l/m 4,1 km/h N 0,00 h 0,0 UV-I 0 W/m 0,0 km/h
02.04.2008 6,1 C 75 % 1016,3 hPa 13,9 l/m 5,8 km/h N 0,00 h 0,0 UV-I 0 W/m 0,0 km/h
03.04.2008 4,2 C 81 % 1022,5 hPa 7,4 l/m 1,7 km/h N 0,00 h 0,0 UV-I 0 W/m 0,0 km/h
04.04.2008 4,8 C 81 % 1022,3 hPa 0,3 l/m 3,2 km/h N 0,00 h 0,0 UV-I 0 W/m 0,0 km/h
05.04.2008 4,1 C 84 % 1006,0 hPa 14,5 l/m 0,3 km/h N 0,00 h 0,0 UV-I 0 W/m 0,0 km/h
06.04.2008 2,4 C 75 % 999,5 hPa 2,1 l/m 0,2 km/h N 0,00 h 0,0 UV-I 0 W/m 0,0 km/h
07.04.2008 0,7 C 83 % 1001,3 hPa 5,6 l/m 0,0 km/h N 0,00 h 0,0 UV-I 0 W/m 0,0 km/h
08.04.2008 1,5 C 76 % 1003,8 hPa 3,8 l/m 0,9 km/h N 0,00 h 0,0 UV-I 0 W/m 0,0 km/h
09.04.2008 4,4 C 68 % 997,8 hPa 0,0 l/m 0,1 km/h N 0,00 h 0,0 UV-I 0 W/m 0,0 km/h
10.04.2008 3,7 C 80 % 998,5 hPa 0,0 l/m 0,0 km/h N 0,00 h 0,0 UV-I 0 W/m 0,0 km/h
11.04.2008 5,1 C 82 % 998,5 hPa 2,1 l/m 0,0 km/h N 0,00 h 0,0 UV-I 0 W/m 0,0 km/h
12.04.2008 7,4 C 71 % 1007,5 hPa 1,2 l/m 1,7 km/h N 0,00 h 0,0 UV-I 0 W/m 0,0 km/h
13.04.2008 6,3 C 78 % 1010,5 hPa 9,7 l/m 0,8 km/h N 0,00 h 0,0 UV-I 0 W/m 0,0 km/h
14.04.2008 5,6 C 83 % 1010,5 hPa 12,4 l/m 0,6 km/h N 0,00 h 0,0 UV-I 0 W/m 0,0 km/h
15.04.2008 4,1 C 77 % 1017,8 hPa 0,3 l/m 5,3 km/h N 0,00 h 0,0 UV-I 0 W/m 0,0 km/h
16.04.2008 1,8 C 75 % 1017,5 hPa 0,0 l/m 0,6 km/h N 0,00 h 0,0 UV-I 0 W/m 0,0 km/h
17.04.2008 3,5 C 68 % 1007,3 hPa 0,0 l/m 0,0 km/h N 0,00 h 0,0 UV-I 0 W/m 0,0 km/h
18.04.2008 5,8 C 70 % 1000,8 hPa 0,0 l/m 1,5 km/h N 0,00 h 0,0 UV-I 0 W/m 0,0 km/h
19.04.2008 6,9 C 69 % 1001,8 hPa 0,0 l/m 1,8 km/h N 0,00 h 0,0 UV-I 0 W/m 0,0 km/h
20.04.2008 8,0 C 67 % 1007,5 hPa 0,0 l/m 3,7 km/h N 0,00 h 0,0 UV-I 0 W/m 0,0 km/h
21.04.2008 11,1 C 60 % 1004,0 hPa 0,0 l/m 3,7 km/h N 0,00 h 0,0 UV-I 0 W/m 0,0 km/h
22.04.2008 9,3 C 64 % 1009,3 hPa 0,0 l/m 1,3 km/h N 0,00 h 0,0 UV-I 0 W/m 0,0 km/h
23.04.2008 9,4 C 61 % 1018,0 hPa 0,0 l/m 0,6 km/h N 0,00 h 0,0 UV-I 0 W/m 0,0 km/h
24.04.2008 9,8 C 69 % 1020,3 hPa 0,0 l/m 0,1 km/h N 0,00 h 0,0 UV-I 0 W/m 0,0 km/h
25.04.2008 8,1 C 79 % 1024,8 hPa 11,2 l/m 1,2 km/h N 0,00 h 0,0 UV-I 0 W/m 0,0 km/h
26.04.2008 10,1 C 70 % 1026,0 hPa 0,3 l/m 0,4 km/h N 0,00 h 0,0 UV-I 0 W/m 0,0 km/h
27.04.2008 12,6 C 58 % 1018,0 hPa 0,0 l/m 2,9 km/h N 0,00 h 0,0 UV-I 0 W/m 0,0 km/h
28.04.2008 12,0 C 71 % 1005,5 hPa 11,5 l/m 9,6 km/h N 0,00 h 0,0 UV-I 0 W/m 0,0 km/h
29.04.2008 8,9 C 73 % 1003,0 hPa 2,7 l/m 0,5 km/h N 0,00 h 0,0 UV-I 0 W/m 0,0 km/h
30.04.2008 5,8 C 74 % 1001,8 hPa 0,0 l/m 0,0 km/h N 0,00 h 0,0 UV-I 0 W/m 0,0 km/h
Min-Datum 08.04.08 23.04.08 07.04.08 17 Tage 01.04.08 - - - - 01.04.08
Min-Zeit 06:30 16:20 02:55 - 00:00 - - - - 00:00
Minimum -5,1 C 37 % 997,0 hPa - 0,0 km/h - - - - 0,0 km/h
Max-Datum 28.04.08 12.04.08 26.04.08 05.04.08 27.04.08 - 01.04.08 01.04.08 01.04.08 01.04.08
Max-Zeit 14:45 01:10 11:35 13:15 18:50 - 00:00 00:00 00:00 00:00
Maximum 19,4 C 86 % 1028,0 hPa 14,5 l/m 52,5 km/h
N
- 0,00 h 0,0 UV-I 0 W/m 0,0 km/h
N
Durchschnitt 6,4 C 73 % 1009,9 hPa #102,1 l/m 1,7 km/h N #0 min. 0,0 UV-I 0 W/m 0,0 km/h

Durchschnitt Minimum Temp.2,6 C
Durchschnitt Maximum Temp.11,5 C